Time;durP1;ratioP1;P1;durP2;ratioP2;P2;SDS_P1;SDS_P2;PMS_P1;PMS_P2;Temp;Humidity;BMP_temperature;BMP_pressure;BME280_temperature;BME280_humidity;BME280_pressure;Samples;Min_cycle;Max_cycle;Signal;HPM_P1;HPM_P2
2022/05/24 00:01:22;;;;;;;32.20;27.50;;;;;;;12.64;100.00;163870.28;5070228;28;20039;-61
2022/05/24 00:03:47;;;;;;;36.85;29.20;;;;;;;12.67;100.00;163878.44;5071997;28;20101;-61
2022/05/24 00:06:14;;;;;;;34.08;30.35;;;;;;;12.66;100.00;163875.72;5070013;28;20047;-62
2022/05/24 00:08:39;;;;;;;35.90;31.67;;;;;;;12.69;100.00;163883.84;5071391;28;20028;-62
2022/05/24 00:11:05;;;;;;;36.13;32.30;;;;;;;12.70;100.00;163886.50;5070308;28;20660;-62
2022/05/24 00:13:31;;;;;;;37.58;33.53;;;;;;;12.73;100.00;163891.94;5071398;28;20506;-61
2022/05/24 00:15:56;;;;;;;39.30;33.45;;;;;;;12.76;100.00;163900.06;5070149;28;20039;-62
2022/05/24 00:18:25;;;;;;;34.28;30.65;;;;;;;12.78;100.00;163905.44;5071676;28;20521;-61
2022/05/24 00:20:54;;;;;;;44.00;36.75;;;;;;;12.78;100.00;163905.44;5069774;28;20093;-61
2022/05/24 00:23:21;;;;;;;46.97;34.83;;;;;;;12.82;100.00;163916.28;5071867;28;20031;-61
2022/05/24 00:25:49;;;;;;;41.25;34.85;;;;;;;12.87;100.00;163928.44;5069655;28;20037;-59
2022/05/24 00:28:16;;;;;;;29.70;25.02;;;;;;;12.88;100.00;163932.47;5071122;28;20518;-59
2022/05/24 00:30:44;;;;;;;38.92;34.67;;;;;;;12.90;100.00;163937.91;5070075;28;20415;-63
2022/05/24 00:33:10;;;;;;;43.57;34.63;;;;;;;12.90;100.00;163937.91;5071471;28;20085;-62
2022/05/24 00:35:35;;;;;;;42.42;37.30;;;;;;;12.91;100.00;163940.63;5069179;28;20459;-62
2022/05/24 00:38:01;;;;;;;40.22;36.13;;;;;;;12.92;100.00;163943.28;5071193;28;20115;-62
2022/05/24 00:40:52;;;;;;;45.92;36.00;;;;;;;12.92;100.00;163943.28;5070261;28;20051;-62
2022/05/24 00:43:33;;;;;;;48.58;37.85;;;;;;;12.94;100.00;163948.69;5069994;28;20036;-62
2022/05/24 00:46:03;;;;;;;40.08;35.20;;;;;;;12.97;100.00;163955.44;5069727;28;20630;-62
2022/05/24 00:48:36;;;;;;;46.58;37.40;;;;;;;12.98;100.00;163959.53;5071422;28;20036;-62
2022/05/24 00:51:03;;;;;;;43.05;33.83;;;;;;;12.91;100.00;163940.63;5069267;28;20046;-63
2022/05/24 00:53:37;;;;;;;46.85;39.35;;;;;;;12.96;100.00;163954.13;5071126;28;20478;-62
2022/05/24 00:56:09;;;;;;;42.65;36.13;;;;;;;12.81;100.00;163914.88;5069483;28;20729;-62
2022/05/24 00:58:52;;;;;;;44.97;38.15;;;;;;;13.01;100.00;163967.63;5070568;28;20032;-63
2022/05/24 01:01:21;;;;;;;45.85;39.13;;;;;;;12.99;100.00;163960.88;5069379;28;20510;-63
2022/05/24 01:03:46;;;;;;;50.33;38.70;;;;;;;12.98;100.00;163959.53;5070676;28;20028;-63
2022/05/24 01:06:11;;;;;;;47.15;40.55;;;;;;;12.96;100.00;163954.13;5069231;28;20064;-62
2022/05/24 01:08:37;;;;;;;43.88;37.70;;;;;;;12.96;100.00;163954.13;5070466;28;20352;-62
2022/05/24 01:11:03;;;;;;;48.15;38.05;;;;;;;12.95;100.00;163951.41;5069243;28;20044;-63
2022/05/24 01:13:31;;;;;;;45.35;38.33;;;;;;;12.95;100.00;163950.06;5070342;28;20020;-63
2022/05/24 01:15:57;;;;;;;41.47;35.75;;;;;;;12.97;100.00;163955.44;5068858;28;20036;-63
2022/05/24 01:18:24;;;;;;;42.40;35.55;;;;;;;12.95;100.00;163951.41;5070660;28;20380;-62
2022/05/24 01:20:55;;;;;;;44.30;36.38;;;;;;;12.99;100.00;163962.19;5068751;28;20055;-62
2022/05/24 01:23:33;;;;;;;49.58;38.72;;;;;;;12.95;100.00;163950.06;5070628;28;20025;-62
2022/05/24 01:26:06;;;;;;;74.43;42.72;;;;;;;12.97;100.00;163955.44;5068759;28;20128;-60
2022/05/24 01:28:53;;;;;;;48.53;40.33;;;;;;;12.94;100.00;163948.69;5070506;28;20069;-62
2022/05/24 01:31:20;;;;;;;47.17;37.47;;;;;;;12.97;100.00;163956.81;5069250;28;20089;-61
2022/05/24 01:36:36;;;;;;;50.63;40.67;;;;;;;13.01;100.00;163967.63;5069028;28;20108;-61
2022/05/24 01:39:04;;;;;;;52.00;42.05;;;;;;;13.05;100.00;163975.75;5070755;28;20031;-61
2022/05/24 01:41:35;;;;;;;50.25;43.90;;;;;;;13.06;100.00;163978.47;5068691;28;20149;-61
2022/05/24 01:44:01;;;;;;;51.00;42.15;;;;;;;13.09;100.00;163986.53;5070507;28;20478;-61
2022/05/24 01:46:35;;;;;;;52.22;41.55;;;;;;;13.08;100.00;163983.81;5068824;28;20087;-61
2022/05/24 01:49:06;;;;;;;55.38;43.25;;;;;;;13.10;100.00;163990.63;5069888;28;20041;-61
2022/05/24 01:51:44;;;;;;;47.80;40.40;;;;;;;13.09;100.00;163987.91;5068822;28;20400;-61
2022/05/24 01:54:10;;;;;;;50.22;44.70;;;;;;;13.11;100.00;163991.97;5070316;28;20037;-61
2022/05/24 01:56:39;;;;;;;56.08;42.92;;;;;;;13.13;100.00;163998.72;5068386;28;20036;-61
2022/05/24 01:59:07;;;;;;;47.00;41.85;;;;;;;13.15;100.00;164004.13;5070266;28;20040;-62
2022/05/24 02:01:45;;;;;;;40.00;33.17;;;;;;;13.16;100.00;164005.47;5068676;28;20044;-62
2022/05/24 02:04:10;;;;;;;54.60;44.33;;;;;;;13.17;100.00;164008.19;5069733;28;20036;-62
2022/05/24 02:06:36;;;;;;;50.97;43.10;;;;;;;13.17;100.00;164008.19;5068511;28;20059;-62
2022/05/24 02:09:04;;;;;;;59.53;45.63;;;;;;;13.19;100.00;164013.59;5070148;28;20047;-62
2022/05/24 02:11:31;;;;;;;52.77;45.23;;;;;;;13.17;100.00;164009.56;5068272;28;20415;-62
2022/05/24 02:14:06;;;;;;;64.37;52.63;;;;;;;13.14;100.00;164000.09;5070096;28;20438;-62
2022/05/24 02:16:34;;;;;;;59.22;47.30;;;;;;;13.16;100.00;164005.47;5068685;28;20131;-62
2022/05/24 02:19:01;;;;;;;67.55;51.35;;;;;;;13.16;100.00;164005.47;5069296;28;20541;-62
2022/05/24 02:21:27;;;;;;;60.47;47.20;;;;;;;13.18;100.00;164010.88;5068579;28;20123;-62
2022/05/24 02:23:52;;;;;;;62.03;48.45;;;;;;;13.19;100.00;164013.59;5069852;28;20101;-62
2022/05/24 02:26:21;;;;;;;60.80;48.15;;;;;;;13.16;100.00;164005.47;5068206;28;20047;-62
2022/05/24 02:28:50;;;;;;;61.30;49.28;;;;;;;13.11;100.00;163991.97;5070045;28;20024;-62
2022/05/24 02:31:20;;;;;;;58.55;47.72;;;;;;;13.07;100.00;163981.16;5068501;28;20037;-62
2022/05/24 02:33:46;;;;;;;55.10;45.60;;;;;;;13.00;100.00;163964.91;5069273;28;20106;-61
2022/05/24 02:36:13;;;;;;;61.08;50.55;;;;;;;12.98;100.00;163959.53;5068610;28;20039;-62
2022/05/24 02:38:38;;;;;;;58.33;49.83;;;;;;;12.92;100.00;163943.28;5069661;28;20158;-61
2022/05/24 02:43:48;;;;;;;59.00;46.15;;;;;;;12.82;100.00;163916.28;5069381;28;20044;-61
2022/05/24 02:46:16;;;;;;;65.85;47.17;;;;;;;12.77;100.00;163902.75;5068659;28;20033;-61
2022/05/24 02:48:42;;;;;;;57.70;47.53;;;;;;;12.72;100.00;163890.59;5069447;28;20024;-62
2022/05/24 02:51:11;;;;;;;57.63;48.90;;;;;;;12.67;100.00;163878.44;5068350;28;20036;-61
2022/05/24 02:53:38;;;;;;;56.65;45.45;;;;;;;12.65;100.00;163873.00;5069504;28;20021;-62
2022/05/24 02:56:04;;;;;;;53.78;46.88;;;;;;;12.45;100.00;163818.97;5067922;28;20035;-62
2022/05/24 02:58:30;;;;;;;56.80;47.33;;;;;;;12.57;100.00;163850.03;5069493;28;20020;-62
2022/05/24 03:00:56;;;;;;;72.43;48.85;;;;;;;12.63;100.00;163867.59;5068195;28;20557;-62
2022/05/24 03:03:21;;;;;;;62.72;49.05;;;;;;;12.66;100.00;163875.72;5072453;28;20430;-60
2022/05/24 03:05:46;;;;;;;59.38;48.00;;;;;;;12.66;100.00;163875.72;5071470;28;20044;-60
2022/05/24 03:10:55;;;;;;;67.63;54.05;;;;;;;12.70;100.00;163886.50;5071297;28;20548;-60
2022/05/24 03:16:09;;;;;;;59.55;46.10;;;;;;;12.72;100.00;163889.22;5071862;28;20067;-60
2022/05/24 03:18:35;;;;;;;54.33;46.28;;;;;;;12.73;100.00;163893.31;5072471;28;20056;-62
2022/05/24 03:21:00;;;;;;;47.38;41.33;;;;;;;12.74;100.00;163895.97;5071582;28;20043;-61
2022/05/24 03:23:25;;;;;;;43.78;38.92;;;;;;;12.73;100.00;163891.94;5072669;28;20031;-60
2022/05/24 03:25:51;;;;;;;48.35;39.22;;;;;;;12.72;100.00;163889.22;5070376;28;20045;-61
2022/05/24 03:28:20;;;;;;;42.35;37.90;;;;;;;12.70;100.00;163886.50;5072831;28;20025;-61
2022/05/24 03:30:45;;;;;;;42.92;37.22;;;;;;;12.65;100.00;163871.69;5071240;28;20044;-62
2022/05/24 03:33:11;;;;;;;37.85;32.88;;;;;;;12.67;100.00;163878.44;5072088;28;20036;-61
2022/05/24 03:35:37;;;;;;;38.83;32.65;;;;;;;12.64;100.00;163870.28;5071104;28;20036;-62
2022/05/24 03:38:03;;;;;;;30.33;27.10;;;;;;;12.64;100.00;163868.97;5072691;28;20032;-61
2022/05/24 03:40:29;;;;;;;33.45;29.10;;;;;;;12.62;100.00;163864.88;5070940;28;20040;-62
2022/05/24 03:42:55;;;;;;;39.83;28.77;;;;;;;12.63;100.00;163866.25;5072397;28;20055;-61
2022/05/24 03:45:21;;;;;;;33.75;30.10;;;;;;;12.58;100.00;163852.75;5068394;28;20211;-61
2022/05/24 03:47:46;;;;;;;30.65;27.05;;;;;;;12.51;100.00;163836.50;5062159;28;20495;-60
2022/05/24 03:50:13;;;;;;;35.92;28.17;;;;;;;12.49;100.00;163831.13;5061460;28;20020;-60
2022/05/24 03:52:38;;;;;;;30.75;25.48;;;;;;;12.50;100.00;163833.84;5064806;28;20588;-60
2022/05/24 03:55:04;;;;;;;27.70;24.73;;;;;;;12.45;100.00;163818.97;5071434;28;20036;-60
2022/05/24 04:00:16;;;;;;;26.63;23.75;;;;;;;12.30;100.00;163781.13;5070939;28;20533;-60
2022/05/24 04:02:41;;;;;;;33.08;24.25;;;;;;;12.27;100.00;163771.66;5071104;28;20036;-60
2022/05/24 04:05:07;;;;;;;28.27;23.45;;;;;;;12.24;100.00;163763.53;5071618;28;20025;-60
2022/05/24 04:07:33;;;;;;;26.38;20.30;;;;;;;12.21;100.00;163756.78;5071970;28;20035;-60
2022/05/24 04:09:58;;;;;;;23.05;17.65;;;;;;;12.24;100.00;163764.91;5071510;28;20016;-60
2022/05/24 04:12:24;;;;;;;29.70;16.20;;;;;;;12.20;100.00;163755.47;5068938;28;20048;-60
2022/05/24 04:14:50;;;;;;;25.95;16.50;;;;;;;12.21;100.00;163758.13;5071437;28;20025;-59
2022/05/24 04:17:15;;;;;;;23.10;17.88;;;;;;;12.17;100.00;163747.34;5069469;28;20071;-59
2022/05/24 04:19:40;;;;;;;21.42;17.00;;;;;;;12.18;100.00;163748.66;5070813;28;20032;-60
2022/05/24 04:22:06;;;;;;;19.30;15.25;;;;;;;12.16;100.00;163744.63;5063699;28;20060;-59
2022/05/24 04:24:31;;;;;;;24.95;16.67;;;;;;;12.16;100.00;163743.31;5070850;28;20114;-59
2022/05/24 04:26:57;;;;;;;27.83;15.95;;;;;;;12.18;100.00;163748.66;5069917;28;20037;-59
2022/05/24 04:29:22;;;;;;;21.75;15.60;;;;;;;12.14;100.00;163737.88;5071938;28;20441;-60
2022/05/24 04:31:47;;;;;;;29.33;18.15;;;;;;;12.13;100.00;163736.56;5069500;28;20385;-59
2022/05/24 04:34:14;;;;;;;20.38;15.85;;;;;;;12.19;100.00;163751.38;5071650;28;20031;-59
2022/05/24 04:36:39;;;;;;;21.90;16.00;;;;;;;12.18;100.00;163750.03;5069524;28;20067;-59
2022/05/24 04:39:04;;;;;;;22.88;15.90;;;;;;;12.18;100.00;163748.66;5070718;28;20028;-58
2022/05/24 04:44:14;;;;;;;27.80;17.55;;;;;;;12.19;100.00;163752.75;5070640;28;20445;-58
2022/05/24 04:49:23;;;;;;;21.48;16.30;;;;;;;12.31;100.00;163783.84;5071328;28;20031;-58
2022/05/24 04:51:53;;;;;;;22.10;16.00;;;;;;;12.34;100.00;163791.91;5069444;28;20499;-58
2022/05/24 04:54:18;;;;;;;25.95;18.48;;;;;;;12.27;100.00;163771.66;5070611;28;20517;-59
2022/05/24 04:56:44;;;;;;;22.83;16.50;;;;;;;12.28;100.00;163775.72;5069479;28;20039;-58
2022/05/24 04:59:09;;;;;;;23.27;16.92;;;;;;;12.29;100.00;163778.41;5071242;28;20033;-58
2022/05/24 05:01:34;;;;;;;24.80;13.30;;;;;;;12.27;100.00;163773.00;5069162;28;20036;-58
2022/05/24 05:04:00;;;;;;;21.63;15.07;;;;;;;12.26;100.00;163770.28;5070973;28;20032;-58
2022/05/24 05:06:25;;;;;;;28.15;15.45;;;;;;;12.28;100.00;163775.72;5069219;28;20043;-58
2022/05/24 05:08:50;;;;;;;27.65;16.02;;;;;;;12.22;100.00;163759.50;5070512;28;20036;-58
2022/05/24 05:11:16;;;;;;;19.73;13.73;;;;;;;12.16;100.00;163743.31;5069588;28;20415;-58
2022/05/24 05:13:41;;;;;;;17.80;14.57;;;;;;;12.16;100.00;163743.31;5059732;28;20020;-58
2022/05/24 05:16:07;;;;;;;23.23;13.25;;;;;;;12.24;100.00;163764.91;5059351;28;20040;-58
2022/05/24 05:18:32;;;;;;;26.60;14.13;;;;;;;12.24;100.00;163764.91;5059119;28;20017;-58
2022/05/24 05:20:59;;;;;;;26.15;14.57;;;;;;;12.21;100.00;163756.78;5059069;28;20381;-58
2022/05/24 05:23:24;;;;;;;20.45;13.73;;;;;;;12.27;100.00;163771.66;5060356;28;20090;-58
2022/05/24 05:25:50;;;;;;;18.23;13.65;;;;;;;12.20;100.00;163754.09;5056670;28;20591;-58
2022/05/24 05:28:17;;;;;;;17.30;13.75;;;;;;;12.22;100.00;163759.50;5061341;28;20012;-58
2022/05/24 05:33:27;;;;;;;20.77;15.13;;;;;;;12.19;100.00;163751.38;5062775;28;20425;-57
2022/05/24 05:35:53;;;;;;;18.23;14.18;;;;;;;12.22;100.00;163759.50;5067829;28;20048;-57
2022/05/24 05:38:19;;;;;;;26.15;15.52;;;;;;;12.29;100.00;163777.03;5070261;28;20028;-57
2022/05/24 05:40:45;;;;;;;20.98;14.23;;;;;;;12.40;100.00;163805.47;5068737;28;20122;-57
2022/05/24 05:43:10;;;;;;;21.80;15.00;;;;;;;12.44;100.00;163816.25;5070711;28;20028;-57
2022/05/24 05:45:36;;;;;;;26.02;15.32;;;;;;;12.58;100.00;163854.09;5068563;28;20040;-57
2022/05/24 05:48:02;;;;;;;24.80;16.90;;;;;;;12.65;100.00;163873.00;5070460;28;20025;-56
2022/05/24 05:50:27;;;;;;;19.00;15.52;;;;;;;12.61;100.00;163862.22;5069052;28;20055;-56
2022/05/24 05:52:52;;;;;;;17.00;14.57;;;;;;;12.62;100.00;163863.53;5069980;28;20356;-56
2022/05/24 05:55:20;;;;;;;17.58;14.85;;;;;;;12.71;100.00;163887.88;5068931;28;20032;-56
2022/05/24 05:57:46;;;;;;;20.80;16.33;;;;;;;12.73;100.00;163891.94;5069330;28;20017;-56
2022/05/24 06:00:12;;;;;;;18.45;15.57;;;;;;;12.72;100.00;163889.22;5068589;28;20560;-56
2022/05/24 06:02:38;;;;;;;21.67;16.50;;;;;;;12.75;100.00;163897.34;5069862;28;20024;-56
2022/05/24 06:05:05;;;;;;;23.30;18.45;;;;;;;12.73;100.00;163891.94;5070268;28;20029;-57
2022/05/24 06:07:31;;;;;;;24.42;15.35;;;;;;;12.80;100.00;163912.22;5068273;28;20036;-56
2022/05/24 06:09:56;;;;;;;25.33;18.95;;;;;;;12.82;100.00;163916.28;5070121;28;20061;-56
2022/05/24 06:12:21;;;;;;;27.20;18.95;;;;;;;12.81;100.00;163913.56;5068676;28;20048;-57
2022/05/24 06:14:47;;;;;;;19.77;14.55;;;;;;;12.82;100.00;163916.28;5069754;28;20027;-57
2022/05/24 06:17:12;;;;;;;21.05;15.48;;;;;;;12.79;100.00;163908.13;5068452;28;20040;-57
2022/05/24 06:19:38;;;;;;;30.60;19.02;;;;;;;12.76;100.00;163900.06;5069828;28;20020;-56
2022/05/24 06:22:03;;;;;;;20.27;15.45;;;;;;;12.71;100.00;163887.88;5068165;28;20037;-57
2022/05/24 06:24:29;;;;;;;15.48;13.88;;;;;;;12.63;100.00;163867.59;5068444;28;20514;-57
2022/05/24 06:26:56;;;;;;;18.20;15.10;;;;;;;12.60;100.00;163858.13;5066768;28;20620;-57
2022/05/24 06:29:22;;;;;;;20.48;14.40;;;;;;;12.52;100.00;163837.88;5069902;28;20028;-56
2022/05/24 06:31:48;;;;;;;29.20;14.15;;;;;;;12.52;100.00;163837.88;5067922;28;20044;-57
2022/05/24 06:34:13;;;;;;;17.85;14.98;;;;;;;12.55;100.00;163845.97;5070348;28;20050;-57
2022/05/24 06:36:38;;;;;;;19.73;14.95;;;;;;;12.58;100.00;163854.09;5070946;28;20036;-57
2022/05/24 06:39:04;;;;;;;22.33;16.05;;;;;;;12.53;100.00;163840.59;5073654;28;20032;-59
2022/05/24 06:41:29;;;;;;;24.50;17.05;;;;;;;12.49;100.00;163829.75;5072240;28;20048;-56
2022/05/24 06:43:54;;;;;;;21.88;17.63;;;;;;;12.41;100.00;163808.13;5071703;28;20448;-57
2022/05/24 06:46:21;;;;;;;20.45;18.35;;;;;;;12.41;100.00;163808.13;5066959;28;20040;-57
2022/05/24 06:48:46;;;;;;;26.58;20.10;;;;;;;12.28;100.00;163774.38;5073414;28;20032;-56
2022/05/24 06:51:14;;;;;;;31.77;18.23;;;;;;;12.33;100.00;163789.22;5072039;28;20510;-59
2022/05/24 06:53:41;;;;;;;24.00;18.75;;;;;;;12.33;100.00;163789.22;5069930;28;20044;-57
2022/05/24 06:56:07;;;;;;;28.63;21.17;;;;;;;12.24;100.00;163764.91;5072017;28;20036;-57
2022/05/24 06:58:34;;;;;;;20.65;17.17;;;;;;;12.25;100.00;163767.59;5073362;28;20025;-57
2022/05/24 07:03:45;;;;;;;23.05;18.50;;;;;;;12.29;100.00;163777.03;5073093;28;20047;-57
2022/05/24 07:06:12;;;;;;;23.20;18.63;;;;;;;12.32;100.00;163786.50;5071870;28;20067;-58
2022/05/24 07:08:38;;;;;;;25.45;19.92;;;;;;;12.41;100.00;163808.13;5072502;28;20068;-57
2022/05/24 07:11:04;;;;;;;21.95;16.30;;;;;;;12.35;100.00;163794.63;5071821;28;20052;-57
2022/05/24 07:13:29;;;;;;;25.88;18.30;;;;;;;12.38;100.00;163802.75;5073106;28;20024;-57
2022/05/24 07:15:54;;;;;;;26.40;17.92;;;;;;;12.35;100.00;163794.63;5070958;28;20040;-57
2022/05/24 07:18:20;;;;;;;22.88;18.80;;;;;;;12.39;100.00;163804.09;5073148;28;20478;-57
2022/05/24 07:20:45;;;;;;;23.25;18.52;;;;;;;12.37;100.00;163800.03;5071515;28;20397;-57
2022/05/24 07:23:15;;;;;;;21.08;17.95;;;;;;;12.33;100.00;163789.22;5072620;28;20032;-57
2022/05/24 07:25:42;;;;;;;20.33;18.02;;;;;;;12.34;100.00;163791.91;5071270;28;20122;-57
2022/05/24 07:28:09;;;;;;;24.27;18.35;;;;;;;12.44;100.00;163816.25;5072010;28;20033;-57
2022/05/24 07:30:35;;;;;;;21.55;17.23;;;;;;;12.47;100.00;163824.38;5071125;28;20032;-57
2022/05/24 07:33:00;;;;;;;20.23;16.08;;;;;;;12.51;100.00;163835.16;5073185;28;20043;-57
2022/05/24 07:35:25;;;;;;;21.08;16.52;;;;;;;12.67;100.00;163877.03;5071362;28;20028;-57
2022/05/24 07:37:51;;;;;;;22.00;18.17;;;;;;;12.86;100.00;163927.06;5072288;28;20077;-57
2022/05/24 07:48:10;;;;;;;16.42;14.07;;;;;;;13.22;100.00;164021.69;5071645;28;20495;-57
2022/05/24 07:50:36;;;;;;;19.13;12.82;;;;;;;13.24;100.00;164025.78;5070653;28;20036;-57
2022/05/24 07:53:02;;;;;;;17.45;15.57;;;;;;;13.25;100.00;164029.81;5072190;28;20028;-57
2022/05/24 07:55:27;;;;;;;14.63;13.13;;;;;;;13.32;100.00;164048.75;5071100;28;20016;-57
2022/05/24 07:57:52;;;;;;;12.57;11.48;;;;;;;13.38;100.00;164062.25;5072467;28;20027;-57
2022/05/24 08:00:18;;;;;;;14.73;13.25;;;;;;;13.07;100.00;163981.16;5067220;28;20028;-57
2022/05/24 08:02:44;;;;;;;15.13;12.52;;;;;;;13.24;100.00;164027.09;5071833;28;20082;-57
2022/05/24 08:05:10;;;;;;;18.05;12.20;;;;;;;13.18;100.00;164010.88;5070871;28;20483;-56
2022/05/24 08:07:35;;;;;;;18.95;12.13;;;;;;;13.34;100.00;164052.78;5071670;28;20124;-57
2022/05/24 08:10:00;;;;;;;13.10;11.90;;;;;;;13.61;100.00;164124.50;5072191;28;20537;-57
2022/05/24 08:12:26;;;;;;;17.20;10.52;;;;;;;13.81;100.00;164175.94;5070646;28;20515;-57
2022/05/24 08:14:52;;;;;;;17.55;12.02;;;;;;;13.84;100.00;164184.00;5071393;28;20047;-57
2022/05/24 08:17:17;;;;;;;15.73;9.80;;;;;;;13.72;100.00;164151.56;5070597;28;20036;-56
2022/05/24 08:19:43;;;;;;;14.60;10.10;;;;;;;13.69;100.00;164143.44;5071741;28;20082;-57
2022/05/24 08:22:08;;;;;;;10.38;9.30;;;;;;;13.58;100.00;164116.41;5070036;28;20047;-57
2022/05/24 08:24:34;;;;;;;9.93;9.13;;;;;;;13.69;100.00;164143.44;5071687;28;20653;-57
2022/05/24 08:27:00;;;;;;;16.48;9.68;;;;;;;13.76;100.00;164162.38;5069924;28;20084;-57
2022/05/24 08:29:25;;;;;;;20.23;10.85;;;;;;;13.84;100.00;164182.69;5071472;28;20025;-57
2022/05/24 08:31:51;;;;;;;11.57;10.18;;;;;;;13.96;100.00;164216.47;5069692;28;20048;-57
2022/05/24 08:34:17;;;;;;;11.20;10.10;;;;;;;14.03;100.00;164232.72;5067446;28;20033;-57
2022/05/24 08:36:42;;;;;;;23.52;11.23;;;;;;;14.31;100.00;164307.09;5069339;28;20171;-57
2022/05/24 08:39:07;;;;;;;15.18;8.85;;;;;;;14.50;100.00;164357.16;5062083;28;20024;-57
2022/05/24 08:41:46;;;;;;;16.10;9.68;;;;;;;14.58;100.00;164378.81;5065458;28;20111;-57
2022/05/24 08:50:07;;;;;;;10.77;7.88;;;;;;;14.90;100.00;164461.38;5071337;28;20058;-57
2022/05/24 08:52:41;;;;;;;15.40;8.63;;;;;;;15.02;100.00;164492.53;5049883;28;20118;-56
2022/05/24 08:55:10;;;;;;;15.13;8.02;;;;;;;15.07;100.00;164506.09;5051011;28;20093;-57
2022/05/24 08:57:38;;;;;;;9.35;8.32;;;;;;;15.32;100.00;164571.03;5049317;28;20072;-57
2022/05/24 09:00:10;;;;;;;10.40;7.25;;;;;;;15.65;100.00;164657.69;5051075;28;20511;-57
2022/05/24 09:02:38;;;;;;;15.80;7.30;;;;;;;15.88;100.00;164717.31;5049390;28;20102;-57
2022/05/24 09:05:03;;;;;;;8.02;7.15;;;;;;;16.12;100.00;164780.94;5050463;28;20023;-57
2022/05/24 09:07:39;;;;;;;8.35;6.05;;;;;;;16.34;100.00;164839.22;5049263;28;20041;-57
2022/05/24 09:10:12;;;;;;;10.65;5.60;;;;;;;16.51;100.00;164883.91;5050938;28;20066;-57
2022/05/24 09:13:12;;;;;;;16.42;6.15;;;;;;;16.79;100.00;164958.38;5049150;28;20087;-57
2022/05/24 09:15:55;;;;;;;17.98;6.72;;;;;;;17.35;100.00;165104.78;5026976;28;20053;-56
2022/05/24 09:18:58;;;;;;;6.95;4.80;;;;;;;17.20;100.00;165064.13;5048718;28;20037;-57
2022/05/24 09:21:29;;;;;;;5.85;3.22;;;;;;;16.45;100.00;164869.00;5041696;28;20033;-57
2022/05/24 09:24:21;;;;;;;11.85;4.88;;;;;;;15.84;100.00;164709.19;5050417;28;20690;-57
2022/05/24 09:27:11;;;;;;;6.97;3.60;;;;;;;15.17;100.00;164533.13;5048991;28;20061;-57
2022/05/24 09:29:55;;;;;;;8.25;3.33;;;;;;;14.86;100.00;164451.91;5050666;28;20119;-57
2022/05/24 09:32:29;;;;;;;5.03;4.20;;;;;;;14.63;100.00;164389.66;5049161;28;20404;-57
2022/05/24 09:35:09;;;;;;;7.68;3.78;;;;;;;14.55;100.00;164370.72;5050123;28;20059;-57
2022/05/24 09:37:35;;;;;;;7.03;4.13;;;;;;;14.58;100.00;164378.81;5047838;28;20045;-57
2022/05/24 09:40:05;;;;;;;7.38;4.88;;;;;;;14.41;100.00;164332.78;5050695;28;20044;-57
2022/05/24 09:42:33;;;;;;;8.70;5.00;;;;;;;14.41;100.00;164332.78;5048671;28;20037;-57
2022/05/24 09:45:00;;;;;;;;;;;;;;;14.37;100.00;164322.00;5051071;28;20020;-57
2022/05/24 09:47:42;;;;;;;8.45;5.82;;;;;;;14.22;100.00;164284.13;5049025;28;19921;-57
2022/05/24 09:50:36;;;;;;;7.15;5.88;;;;;;;14.15;100.00;164265.19;5050114;28;20086;-56
2022/05/24 09:53:19;;;;;;;9.27;5.45;;;;;;;14.35;100.00;164317.94;5029366;28;20045;-57
2022/05/24 09:55:51;;;;;;;7.70;5.60;;;;;;;15.15;100.00;164527.72;5033304;28;20033;-57
2022/05/24 09:58:25;;;;;;;5.57;4.68;;;;;;;15.91;100.00;164725.41;5052162;28;20428;-57
2022/05/24 10:01:09;;;;;;;6.82;5.82;;;;;;;16.73;100.00;164942.13;5068790;28;20041;-57
2022/05/24 10:03:46;;;;;;;8.27;5.22;;;;;;;17.06;100.00;165028.91;5068255;28;20036;-58
2022/05/24 10:06:26;;;;;;;7.72;5.57;;;;;;;16.56;100.00;164896.09;5068191;28;20048;-57
2022/05/24 10:08:58;;;;;;;6.72;6.00;;;;;;;16.28;100.00;164822.91;5066806;28;20028;-57
2022/05/24 10:11:28;;;;;;;15.13;7.88;;;;;;;15.97;100.00;164741.72;5059874;28;20041;-57
2022/05/24 10:14:15;;;;;;;9.38;7.65;;;;;;;15.46;100.00;164608.94;5058225;28;20029;-57
2022/05/24 10:17:06;;;;;;;13.82;9.27;;;;;;;15.03;100.00;164495.22;5056902;28;20194;-57
2022/05/24 10:19:50;;;;;;;17.13;10.63;;;;;;;14.49;100.00;164353.13;5073720;28;20036;-57
2022/05/24 10:22:33;;;;;;;16.15;12.63;;;;;;;14.09;100.00;164248.94;5071748;28;20048;-58
2022/05/24 10:25:12;;;;;;;16.77;15.05;;;;;;;13.54;100.00;164105.56;5072835;28;20068;-59
2022/05/24 10:27:52;;;;;;;18.60;16.90;;;;;;;13.49;100.00;164092.06;5068306;28;20545;-58
2022/05/24 10:30:24;;;;;;;21.95;19.70;;;;;;;13.74;100.00;164156.94;5057006;28;20118;-59
2022/05/24 10:39:17;;;;;;;22.00;19.90;;;;;;;15.14;100.00;164525.03;5067524;28;20055;-59
2022/05/24 10:42:05;;;;;;;20.85;18.73;;;;;;;15.69;100.00;164669.88;5062148;28;20044;-58
2022/05/24 10:44:45;;;;;;;15.77;14.27;;;;;;;15.98;100.00;164745.75;5071466;28;20053;-58
2022/05/24 10:47:31;;;;;;;16.88;15.23;;;;;;;16.01;100.00;164753.84;5070644;28;20051;-58
2022/05/24 10:50:01;;;;;;;17.13;12.40;;;;;;;15.97;100.00;164741.72;5071605;28;20089;-58
2022/05/24 10:52:40;;;;;;;17.15;15.35;;;;;;;15.98;100.00;164744.38;5071391;28;20040;-58
2022/05/24 10:55:15;;;;;;;16.08;14.45;;;;;;;15.69;100.00;164669.88;5072497;28;20060;-57
2022/05/24 10:58:00;;;;;;;26.25;16.92;;;;;;;15.76;100.00;164687.47;5068566;28;20043;-56
2022/05/24 11:00:51;;;;;;;11.82;10.63;;;;;;;15.63;100.00;164653.66;5071686;28;20025;-57
2022/05/24 11:03:40;;;;;;;10.13;9.15;;;;;;;16.12;100.00;164782.28;5063947;28;20033;-57
2022/05/24 11:06:15;;;;;;;10.35;8.13;;;;;;;16.31;100.00;164832.41;5066972;28;20127;-56
2022/05/24 11:08:54;;;;;;;10.27;9.25;;;;;;;16.25;100.00;164816.16;5072534;28;20028;-57
2022/05/24 11:11:45;;;;;;;10.23;9.15;;;;;;;16.08;100.00;164770.16;5068060;28;20487;-57
2022/05/24 11:14:41;;;;;;;10.48;9.40;;;;;;;16.08;100.00;164771.47;5072375;28;20154;-57
2022/05/24 11:17:10;;;;;;;8.32;7.35;;;;;;;16.18;100.00;164798.56;5060792;28;20036;-56
2022/05/24 11:19:39;;;;;;;11.35;6.07;;;;;;;16.59;100.00;164904.19;5072215;28;20107;-57
2022/05/24 11:22:24;;;;;;;5.45;4.97;;;;;;;17.29;100.00;165088.53;5070625;28;20048;-56
2022/05/24 11:24:55;;;;;;;9.38;6.35;;;;;;;16.33;100.00;164837.84;5072316;28;20131;-56
2022/05/24 11:27:31;;;;;;;7.47;6.95;;;;;;;16.09;100.00;164774.19;5056919;28;20107;-57
2022/05/24 11:30:06;;;;;;;7.00;6.40;;;;;;;15.55;100.00;164633.31;5071231;28;20472;-57
2022/05/24 11:32:42;;;;;;;8.15;6.85;;;;;;;15.83;100.00;164706.47;5064302;28;20044;-57
2022/05/24 11:35:12;;;;;;;9.45;7.78;;;;;;;15.76;100.00;164686.13;5070712;28;20036;-57
2022/05/24 11:37:43;;;;;;;7.70;5.97;;;;;;;15.92;100.00;164728.13;5069652;28;20032;-57
2022/05/24 11:40:30;;;;;;;6.30;5.70;;;;;;;15.98;100.00;164744.38;5072189;28;20500;-57
2022/05/24 11:42:58;;;;;;;7.32;4.50;;;;;;;15.99;100.00;164747.09;5069158;28;20048;-57
2022/05/24 11:45:29;;;;;;;5.15;4.25;;;;;;;16.00;100.00;164749.81;5067903;28;20055;-57
2022/05/24 11:48:01;;;;;;;5.90;4.70;;;;;;;15.91;100.00;164726.81;5057395;28;20050;-56
2022/05/24 11:50:39;;;;;;;4.22;3.92;;;;;;;16.38;100.00;164850.03;5070251;28;20028;-56
2022/05/24 11:53:15;;;;;;;3.80;2.25;;;;;;;16.99;100.00;165009.94;5058904;28;20020;-56
2022/05/24 11:55:45;;;;;;;6.22;3.20;;;;;;;16.77;100.00;164953.00;5069426;28;20036;-57
2022/05/24 11:58:19;;;;;;;3.35;3.05;;;;;;;16.26;100.00;164817.53;5070884;28;20024;-57
2022/05/24 12:00:59;;;;;;;4.93;2.75;;;;;;;15.59;100.00;164642.78;5065569;28;20041;-57